createdAt,value
2018-07-20T00:03:50.161Z,95635.00
2018-07-20T00:09:19.559Z,95639.00
2018-07-20T00:14:48.907Z,95630.00
2018-07-20T00:20:18.237Z,95629.00
2018-07-20T00:25:47.671Z,95627.00
2018-07-20T00:31:16.968Z,95614.00
2018-07-20T00:36:47.439Z,95610.00
2018-07-20T00:42:16.809Z,95607.00
2018-07-20T00:47:47.034Z,95603.00
2018-07-20T00:53:17.176Z,95602.00
2018-07-20T00:58:46.529Z,95607.00
2018-07-20T01:04:15.833Z,95600.00
2018-07-20T01:09:46.244Z,95603.00
2018-07-20T01:15:15.707Z,95587.00
2018-07-20T01:20:45.066Z,95596.00
2018-07-20T01:26:14.330Z,95592.00
2018-07-20T01:31:43.573Z,95590.00
2018-07-20T01:37:12.827Z,95595.00
2018-07-20T01:42:42.069Z,95594.00
2018-07-20T01:48:11.253Z,95588.00
2018-07-20T01:53:40.271Z,95583.00
2018-07-20T01:59:10.542Z,95580.00
2018-07-20T02:04:39.796Z,95587.00
2018-07-20T02:10:09.000Z,95569.00
2018-07-20T02:15:38.279Z,95566.00
2018-07-20T02:21:07.642Z,95563.00
2018-07-20T02:26:37.043Z,95566.00
2018-07-20T02:32:06.303Z,95565.00
2018-07-20T02:37:36.580Z,95552.00
2018-07-20T02:43:05.853Z,95551.00
2018-07-20T02:48:35.134Z,95552.00
2018-07-20T02:54:04.437Z,95548.00
2018-07-20T02:59:33.751Z,95553.00
2018-07-20T03:05:02.973Z,95546.00
2018-07-20T03:10:33.367Z,95546.00
2018-07-20T03:16:02.678Z,95548.00
2018-07-20T03:21:32.343Z,95549.00
2018-07-20T03:27:01.618Z,95559.00
2018-07-20T03:32:30.868Z,95553.00
2018-07-20T03:38:00.147Z,95541.00
2018-07-20T03:43:29.434Z,95544.00
2018-07-20T03:48:58.874Z,95538.00
2018-07-20T03:54:28.146Z,95543.00
2018-07-20T03:59:57.416Z,95543.00
2018-07-20T04:05:26.815Z,95533.00
2018-07-20T04:10:56.089Z,95536.00
2018-07-20T04:16:25.408Z,95540.00
2018-07-20T04:21:54.660Z,95539.00
2018-07-20T04:27:23.959Z,95538.00
2018-07-20T04:32:53.282Z,95526.00
2018-07-20T04:38:23.589Z,95530.00
2018-07-20T04:43:53.057Z,95527.00
2018-07-20T04:49:22.760Z,95536.00
2018-07-20T04:54:52.143Z,95532.00
2018-07-20T05:00:21.484Z,95528.00
2018-07-20T05:05:50.525Z,95527.00
2018-07-20T05:11:20.194Z,95536.00
2018-07-20T05:16:49.549Z,95529.00
2018-07-20T05:22:18.815Z,95522.00
2018-07-20T05:27:48.224Z,95528.00
2018-07-20T05:33:17.830Z,95520.00
2018-07-20T05:38:47.133Z,95520.00
2018-07-20T05:44:16.482Z,95518.00
2018-07-20T05:49:45.797Z,95511.00
2018-07-20T05:55:15.245Z,95512.00
2018-07-20T06:00:44.568Z,95507.00
2018-07-20T06:06:13.812Z,95522.00
2018-07-20T06:11:43.084Z,95513.00
2018-07-20T06:17:12.643Z,95514.00
2018-07-20T06:22:41.960Z,95518.00
2018-07-20T06:28:11.323Z,95525.00
2018-07-20T06:33:41.384Z,95525.00
2018-07-20T06:39:12.226Z,95520.00
2018-07-20T06:44:41.467Z,95533.00
2018-07-20T06:50:15.904Z,95531.00
2018-07-20T06:55:45.235Z,95525.00
2018-07-20T07:01:14.481Z,95530.00
2018-07-20T07:06:43.688Z,95535.00
2018-07-20T07:12:12.976Z,95541.00
2018-07-20T07:17:42.473Z,95536.00
2018-07-20T07:23:11.837Z,95544.00
2018-07-20T07:28:41.070Z,95530.00
2018-07-20T07:34:11.365Z,95534.00
2018-07-20T07:39:40.565Z,95530.00
2018-07-20T07:45:09.914Z,95534.00
2018-07-20T07:50:39.229Z,95530.00
2018-07-20T07:56:08.198Z,95523.00
2018-07-20T08:01:37.467Z,95525.00
2018-07-20T08:07:06.679Z,95528.00
2018-07-20T08:12:35.928Z,95526.00
2018-07-20T08:18:05.236Z,95514.00
2018-07-20T08:23:34.488Z,95505.00
2018-07-20T08:29:03.706Z,95506.00
2018-07-20T08:34:32.942Z,95506.00
2018-07-20T08:40:02.165Z,95508.00
2018-07-20T08:45:31.492Z,95515.00
2018-07-20T08:51:00.446Z,95508.00
2018-07-20T08:56:29.453Z,95502.00
2018-07-20T09:01:58.711Z,95508.00
2018-07-20T09:07:28.085Z,95503.00
2018-07-20T09:12:57.381Z,95516.00
2018-07-20T09:18:26.631Z,95512.00
2018-07-20T09:23:55.868Z,95508.00
2018-07-20T09:29:25.148Z,95517.00
2018-07-20T09:34:54.469Z,95519.00
2018-07-20T09:40:23.841Z,95508.00
2018-07-20T09:45:53.128Z,95510.00
2018-07-20T09:51:22.475Z,95521.00
2018-07-20T09:56:51.827Z,95519.00
2018-07-20T10:02:21.088Z,95510.00
2018-07-20T10:07:50.368Z,95512.00
2018-07-20T10:13:19.809Z,95519.00
2018-07-20T10:18:49.109Z,95511.00
2018-07-20T10:24:18.345Z,95505.00
2018-07-20T10:29:47.723Z,95502.00
2018-07-20T10:35:17.158Z,95497.00
2018-07-20T10:40:47.038Z,95499.00
2018-07-20T10:46:16.740Z,95487.00
2018-07-20T10:51:46.028Z,95499.00
2018-07-20T10:57:15.316Z,95487.00
2018-07-20T11:02:44.607Z,95472.00
2018-07-20T11:08:13.891Z,95465.00
2018-07-20T11:13:43.179Z,95466.00
2018-07-20T11:19:12.409Z,95450.00
2018-07-20T11:24:41.637Z,95445.00
2018-07-20T11:30:11.039Z,95439.00
2018-07-20T11:35:40.365Z,95431.00
2018-07-20T11:41:09.730Z,95427.00
2018-07-20T11:46:38.962Z,95428.00
2018-07-20T11:52:08.211Z,95406.00
2018-07-20T11:57:37.476Z,95416.00
2018-07-20T12:03:06.939Z,95408.00
2018-07-20T12:08:36.247Z,95408.00
2018-07-20T12:14:05.579Z,95412.00
2018-07-20T12:19:34.859Z,95406.00
2018-07-20T12:25:04.168Z,95398.00
2018-07-20T12:30:33.384Z,95404.00
2018-07-20T12:36:02.718Z,95403.00
2018-07-20T12:41:31.948Z,95401.00
2018-07-20T12:47:01.188Z,95403.00
2018-07-20T12:52:30.412Z,95392.00
2018-07-20T12:58:00.176Z,95378.00
2018-07-20T13:03:29.355Z,95382.00
2018-07-20T13:08:58.591Z,95379.00
2018-07-20T13:14:27.779Z,95372.00
2018-07-20T13:19:57.042Z,95370.00
2018-07-20T13:25:26.274Z,95364.00
2018-07-20T13:30:55.501Z,95353.00
2018-07-20T13:36:24.720Z,95354.00
2018-07-20T13:41:53.974Z,95357.00
2018-07-20T13:47:23.283Z,95360.00
2018-07-20T13:52:52.597Z,95355.00
2018-07-20T13:58:21.840Z,95355.00
2018-07-20T14:03:51.121Z,95355.00
2018-07-20T14:09:20.416Z,95348.00
2018-07-20T14:14:49.751Z,95346.00
2018-07-20T14:20:19.037Z,95342.00
2018-07-20T14:25:48.408Z,95336.00
2018-07-20T14:31:17.691Z,95333.00
2018-07-20T14:36:46.897Z,95338.00
2018-07-20T14:42:16.170Z,95337.00
2018-07-20T14:47:45.411Z,95339.00
2018-07-20T14:53:14.656Z,95333.00
2018-07-20T14:58:43.935Z,95331.00
2018-07-20T15:04:13.151Z,95332.00
2018-07-20T15:09:44.026Z,95319.00
2018-07-20T15:15:13.273Z,95314.00
2018-07-20T15:20:42.558Z,95308.00
2018-07-20T15:26:11.852Z,95316.00
2018-07-20T15:31:41.058Z,95307.00
2018-07-20T15:37:10.439Z,95293.00
2018-07-20T15:42:39.791Z,95294.00
2018-07-20T15:48:14.934Z,95289.00
2018-07-20T15:53:44.304Z,95287.00
2018-07-20T15:59:14.604Z,95285.00
2018-07-20T16:04:44.034Z,95285.00
2018-07-20T16:10:13.377Z,95288.00
2018-07-20T16:15:42.754Z,95284.00
2018-07-20T16:21:12.134Z,95278.00
2018-07-20T16:26:42.349Z,95279.00
2018-07-20T16:32:11.625Z,95291.00
2018-07-20T16:37:40.868Z,95291.00
2018-07-20T16:43:10.380Z,95293.00
2018-07-20T16:48:39.666Z,95285.00
2018-07-20T16:54:09.024Z,95296.00
2018-07-20T16:59:38.237Z,95293.00
2018-07-20T17:05:07.590Z,95279.00
2018-07-20T17:10:38.013Z,95280.00
2018-07-20T17:16:08.496Z,95300.00
2018-07-20T17:21:37.803Z,95295.00
2018-07-20T17:27:07.024Z,95293.00
2018-07-20T17:32:36.259Z,95296.00
2018-07-20T17:38:08.907Z,95300.00
2018-07-20T17:43:38.156Z,95302.00
2018-07-20T17:49:07.727Z,95306.00
2018-07-20T17:54:37.012Z,95296.00
2018-07-20T18:00:06.802Z,95299.00
2018-07-20T18:05:36.063Z,95291.00
2018-07-20T18:11:10.216Z,95289.00
2018-07-20T18:16:39.604Z,95293.00
2018-07-20T18:22:17.041Z,95288.00
2018-07-20T18:27:46.376Z,95288.00
2018-07-20T18:33:15.778Z,95290.00
2018-07-20T18:38:45.304Z,95286.00
2018-07-20T18:44:15.619Z,95286.00
2018-07-20T18:49:44.894Z,95284.00
2018-07-20T18:55:14.401Z,95286.00
2018-07-20T19:00:43.878Z,95287.00
2018-07-20T19:06:13.135Z,95286.00
2018-07-20T19:11:44.519Z,95281.00
2018-07-20T19:17:13.985Z,95277.00
2018-07-20T19:22:48.005Z,95268.00
2018-07-20T19:28:18.359Z,95274.00
2018-07-20T19:33:52.413Z,95269.00
2018-07-20T19:39:23.503Z,95269.00
2018-07-20T19:44:57.198Z,95277.00
2018-07-20T19:50:27.575Z,95275.00
2018-07-20T19:55:56.985Z,95285.00
2018-07-20T20:01:26.290Z,95292.00
2018-07-20T20:06:55.626Z,95305.00
2018-07-20T20:12:29.305Z,95310.00
2018-07-20T20:18:01.843Z,95313.00
2018-07-20T20:23:31.149Z,95324.00
2018-07-20T20:29:07.953Z,95333.00
2018-07-20T20:34:37.202Z,95338.00
2018-07-20T20:40:08.085Z,95346.00
2018-07-20T20:45:37.576Z,95347.00
2018-07-20T20:51:06.840Z,95352.00
2018-07-20T20:56:36.201Z,95365.00
2018-07-20T21:02:06.508Z,95383.00
2018-07-20T21:07:36.747Z,95397.00
2018-07-20T21:13:06.219Z,95404.00
2018-07-20T21:18:35.472Z,95423.00
2018-07-20T21:24:06.118Z,95432.00
2018-07-20T21:29:35.519Z,95423.00
2018-07-20T21:35:04.947Z,95424.00
2018-07-20T21:40:34.219Z,95419.00
2018-07-20T21:46:03.637Z,95425.00
2018-07-20T21:51:32.887Z,95425.00
2018-07-20T21:57:02.239Z,95424.00
2018-07-20T22:02:32.796Z,95420.00
2018-07-20T22:08:02.018Z,95415.00
2018-07-20T22:13:31.290Z,95411.00
2018-07-20T22:19:01.216Z,95401.00
2018-07-20T22:24:33.585Z,95387.00
2018-07-20T22:30:03.409Z,95381.00
2018-07-20T22:35:35.711Z,95366.00
2018-07-20T22:41:15.519Z,95366.00
2018-07-20T22:46:44.875Z,95339.00
2018-07-20T22:52:14.294Z,95326.00
2018-07-20T22:57:43.559Z,95320.00
2018-07-20T23:03:12.839Z,95312.00
2018-07-20T23:08:42.250Z,95303.00
2018-07-20T23:14:11.501Z,95302.00
2018-07-20T23:19:40.711Z,95300.00
2018-07-20T23:25:09.932Z,95300.00
2018-07-20T23:30:39.163Z,95295.00
2018-07-20T23:36:08.355Z,95289.00
2018-07-20T23:41:37.769Z,95278.00
2018-07-20T23:47:07.096Z,95281.00
2018-07-20T23:52:36.286Z,95280.00
2018-07-20T23:58:05.613Z,95282.00
